createdAt,value
2023-03-11T00:01:23.144Z,4.05
2023-03-11T00:03:52.753Z,4.10
2023-03-11T00:06:22.332Z,3.92
2023-03-11T00:08:52.375Z,3.58
2023-03-11T00:11:22.516Z,4.03
2023-03-11T00:13:54.642Z,4.10
2023-03-11T00:16:24.196Z,3.97
2023-03-11T00:18:54.024Z,4.18
2023-03-11T00:21:23.598Z,4.00
2023-03-11T00:23:53.176Z,4.00
2023-03-11T00:26:22.928Z,3.63
2023-03-11T00:28:55.865Z,4.38
2023-03-11T00:31:26.550Z,3.58
2023-03-11T00:33:57.340Z,4.20
2023-03-11T00:36:28.862Z,3.95
2023-03-11T00:38:58.428Z,4.10
2023-03-11T00:41:28.173Z,3.75
2023-03-11T00:44:00.331Z,3.75
2023-03-11T00:46:31.484Z,3.45
2023-03-11T00:49:01.100Z,3.60
2023-03-11T00:51:33.779Z,3.33
2023-03-11T00:54:03.758Z,3.45
2023-03-11T00:56:33.750Z,3.75
2023-03-11T00:59:05.892Z,3.28
2023-03-11T01:01:35.682Z,3.67
2023-03-11T01:04:05.272Z,3.40
2023-03-11T01:06:44.703Z,3.58
2023-03-11T01:09:14.909Z,3.80
2023-03-11T01:11:46.183Z,3.65
2023-03-11T01:14:18.327Z,3.50
2023-03-11T01:16:47.929Z,3.55
2023-03-11T01:19:18.919Z,3.60
2023-03-11T01:21:50.024Z,3.50
2023-03-11T01:24:19.769Z,3.28
2023-03-11T01:26:49.334Z,3.60
2023-03-11T01:29:22.564Z,3.28
2023-03-11T01:31:52.088Z,3.25
2023-03-11T01:34:22.084Z,3.10
2023-03-11T01:36:51.667Z,2.90
2023-03-11T01:39:22.570Z,3.30
2023-03-11T01:41:53.142Z,2.95
2023-03-11T01:44:25.583Z,3.22
2023-03-11T01:47:25.580Z,3.20
2023-03-11T01:49:55.311Z,2.70
2023-03-11T01:52:25.000Z,3.20
2023-03-11T01:54:55.284Z,3.20
2023-03-11T01:57:25.203Z,3.03
2023-03-11T02:00:00.177Z,2.75
2023-03-11T02:02:33.859Z,3.25
2023-03-11T02:05:05.728Z,3.10
2023-03-11T02:07:35.390Z,3.13
2023-03-11T02:10:07.281Z,3.38
2023-03-11T02:12:38.508Z,3.47
2023-03-11T02:15:12.432Z,3.00
2023-03-11T02:17:43.160Z,3.15
2023-03-11T02:20:19.398Z,3.25
2023-03-11T02:22:49.318Z,3.10
2023-03-11T02:25:25.329Z,3.03
2023-03-11T02:27:58.623Z,3.17
2023-03-11T02:30:30.190Z,3.30
2023-03-11T02:33:00.326Z,3.83
2023-03-11T02:35:31.608Z,3.50
2023-03-11T02:38:03.249Z,3.30
2023-03-11T02:40:41.996Z,2.97
2023-03-11T02:43:16.960Z,3.53
2023-03-11T02:45:48.054Z,3.63
2023-03-11T02:48:18.443Z,3.25
2023-03-11T02:50:49.440Z,3.35
2023-03-11T02:53:21.164Z,3.00
2023-03-11T02:55:50.742Z,3.45
2023-03-11T02:58:22.878Z,3.25
2023-03-11T03:00:52.438Z,3.70
2023-03-11T03:03:22.026Z,3.42
2023-03-11T03:05:51.718Z,3.53
2023-03-11T03:08:21.293Z,3.35
2023-03-11T03:10:51.033Z,3.55
2023-03-11T03:13:23.334Z,3.35
2023-03-11T03:15:53.168Z,3.70
2023-03-11T03:18:22.705Z,3.17
2023-03-11T03:20:53.326Z,3.45
2023-03-11T03:23:23.341Z,3.88
2023-03-11T03:25:53.108Z,3.50
2023-03-11T03:28:25.537Z,3.30
2023-03-11T03:30:55.098Z,3.45
2023-03-11T03:33:24.886Z,3.20
2023-03-11T03:35:54.554Z,3.17
2023-03-11T03:38:27.835Z,3.60
2023-03-11T03:40:57.811Z,3.13
2023-03-11T03:43:30.199Z,3.22
2023-03-11T03:46:00.323Z,3.60
2023-03-11T03:48:33.466Z,3.47
2023-03-11T03:51:07.101Z,3.85
2023-03-11T03:53:38.322Z,3.42
2023-03-11T03:56:10.769Z,3.58
2023-03-11T03:58:43.841Z,3.50
2023-03-11T04:01:14.391Z,3.67
2023-03-11T04:03:44.735Z,3.50
2023-03-11T04:06:20.496Z,3.35
2023-03-11T04:08:55.647Z,3.88
2023-03-11T04:11:30.042Z,3.30
2023-03-11T04:14:02.588Z,3.47
2023-03-11T04:16:33.890Z,3.50
2023-03-11T04:19:12.032Z,3.50
2023-03-11T04:21:41.915Z,3.30
2023-03-11T04:24:11.796Z,3.50
2023-03-11T04:26:42.487Z,3.40
2023-03-11T04:29:18.831Z,3.30
2023-03-11T04:31:52.467Z,3.28
2023-03-11T04:34:22.387Z,3.70
2023-03-11T04:36:54.808Z,3.60
2023-03-11T04:39:29.431Z,3.90
2023-03-11T04:41:59.501Z,4.13
2023-03-11T04:44:32.918Z,3.60
2023-03-11T04:47:02.741Z,3.75
2023-03-11T04:49:32.342Z,3.47
2023-03-11T04:52:01.890Z,3.78
2023-03-11T04:54:31.811Z,3.25
2023-03-11T04:57:01.479Z,3.40
2023-03-11T04:59:33.713Z,3.70
2023-03-11T05:02:03.714Z,10.38
2023-03-11T05:04:34.153Z,4.40
2023-03-11T05:07:04.323Z,3.85
2023-03-11T05:09:34.298Z,3.60
2023-03-11T05:12:04.318Z,3.33
2023-03-11T05:14:37.598Z,3.30
2023-03-11T05:17:07.628Z,3.10
2023-03-11T05:19:37.361Z,4.32
2023-03-11T05:22:13.160Z,3.53
2023-03-11T05:24:42.730Z,7.88
2023-03-11T05:27:12.343Z,4.20
2023-03-11T05:29:45.033Z,4.10
2023-03-11T05:32:16.205Z,3.88
2023-03-11T05:34:48.538Z,3.60
2023-03-11T05:37:19.262Z,3.75
2023-03-11T05:39:50.918Z,4.57
2023-03-11T05:42:21.534Z,5.65
2023-03-11T05:44:56.443Z,4.13
2023-03-11T05:47:27.700Z,6.93
2023-03-11T05:49:58.713Z,5.22
2023-03-11T05:52:30.596Z,3.72
2023-03-11T05:55:00.309Z,4.40
2023-03-11T05:57:32.564Z,4.07
2023-03-11T06:00:05.683Z,4.07
2023-03-11T06:02:43.984Z,3.90
2023-03-11T06:05:17.755Z,4.30
2023-03-11T06:07:49.915Z,5.00
2023-03-11T06:10:21.162Z,3.92
2023-03-11T06:12:50.767Z,3.72
2023-03-11T06:15:28.406Z,4.22
2023-03-11T06:17:58.251Z,3.88
2023-03-11T06:20:29.019Z,3.70
2023-03-11T06:22:58.797Z,3.47
2023-03-11T06:25:28.737Z,3.60
2023-03-11T06:27:58.841Z,3.50
2023-03-11T06:30:31.115Z,3.72
2023-03-11T06:33:09.175Z,3.65
2023-03-11T06:35:39.400Z,3.90
2023-03-11T06:38:09.050Z,3.30
2023-03-11T06:40:39.926Z,3.35
2023-03-11T06:43:09.691Z,3.38
2023-03-11T06:45:44.942Z,3.65
2023-03-11T06:48:14.790Z,3.38
2023-03-11T06:50:44.505Z,3.72
2023-03-11T06:53:14.374Z,15.90
2023-03-11T06:55:44.110Z,4.70
2023-03-11T06:58:13.924Z,4.45
2023-03-11T07:00:46.163Z,3.47
2023-03-11T07:03:15.891Z,3.45
2023-03-11T07:05:45.595Z,4.00
2023-03-11T07:08:15.506Z,3.67
2023-03-11T07:10:45.090Z,3.78
2023-03-11T07:13:15.315Z,3.78
2023-03-11T07:15:48.411Z,3.88
2023-03-11T07:18:18.194Z,3.42
2023-03-11T07:20:48.202Z,3.00
2023-03-11T07:23:18.257Z,3.42
2023-03-11T07:25:49.115Z,3.35
2023-03-11T07:28:18.965Z,3.30
2023-03-11T07:30:51.230Z,3.38
2023-03-11T07:33:21.092Z,3.25
2023-03-11T07:35:50.735Z,3.90
2023-03-11T07:38:20.953Z,3.30
2023-03-11T07:40:50.646Z,3.10
2023-03-11T07:43:21.011Z,3.67
2023-03-11T07:45:55.047Z,3.85
2023-03-11T07:51:03.084Z,6.35
2023-03-11T07:53:32.694Z,3.40
2023-03-11T07:56:03.179Z,3.55
2023-03-11T07:58:33.318Z,4.50
2023-03-11T08:01:10.350Z,4.97
2023-03-11T08:03:40.457Z,4.55
2023-03-11T08:06:15.326Z,3.40
2023-03-11T08:08:45.192Z,3.20
2023-03-11T08:11:15.455Z,3.13
2023-03-11T08:13:45.783Z,2.88
2023-03-11T08:16:19.660Z,2.90
2023-03-11T08:21:20.838Z,3.00
2023-03-11T08:23:50.557Z,2.95
2023-03-11T08:26:22.166Z,2.65
2023-03-11T08:28:52.203Z,2.90
2023-03-11T08:31:26.897Z,3.42
2023-03-11T08:33:58.512Z,3.15
2023-03-11T08:36:28.435Z,3.00
2023-03-11T08:38:58.098Z,3.00
2023-03-11T08:41:28.579Z,2.80
2023-03-11T08:43:58.240Z,2.83
2023-03-11T08:46:31.884Z,2.90
2023-03-11T08:49:02.089Z,3.17
2023-03-11T08:51:33.274Z,3.15
2023-03-11T08:54:03.767Z,3.03
2023-03-11T08:56:33.489Z,2.85
2023-03-11T08:59:03.166Z,2.80
2023-03-11T09:01:35.403Z,2.70
2023-03-11T09:04:05.151Z,3.92
2023-03-11T09:06:34.757Z,2.78
2023-03-11T09:09:04.349Z,2.65
2023-03-11T09:11:37.432Z,2.53
2023-03-11T09:14:07.620Z,2.35
2023-03-11T09:16:39.793Z,2.80
2023-03-11T09:19:09.802Z,2.35
2023-03-11T09:21:41.072Z,2.25
2023-03-11T09:24:11.274Z,2.45
2023-03-11T09:26:41.058Z,1.88
2023-03-11T09:29:10.666Z,2.00
2023-03-11T09:31:42.877Z,2.40
2023-03-11T09:34:16.040Z,1.50
2023-03-11T09:36:46.973Z,1.67
2023-03-11T09:39:16.646Z,2.17
2023-03-11T09:41:57.938Z,2.00
2023-03-11T09:44:33.026Z,1.60
2023-03-11T09:47:37.801Z,1.95
2023-03-11T09:50:23.877Z,4.10
2023-03-11T09:53:05.439Z,9.68
2023-03-11T09:55:38.031Z,3.58
2023-03-11T09:58:14.304Z,2.00
2023-03-11T10:00:44.597Z,1.40
2023-03-11T10:03:37.383Z,2.10
2023-03-11T10:06:17.370Z,1.85
2023-03-11T10:08:50.327Z,1.60
2023-03-11T10:11:32.653Z,1.67
2023-03-11T10:14:09.359Z,1.80
2023-03-11T10:16:46.482Z,2.00
2023-03-11T10:19:27.724Z,1.83
2023-03-11T10:22:05.572Z,2.13
2023-03-11T10:24:53.564Z,2.22
2023-03-11T10:27:27.278Z,1.80
2023-03-11T10:30:01.131Z,2.10
2023-03-11T10:32:39.562Z,2.05
2023-03-11T10:35:19.563Z,1.88
2023-03-11T10:37:53.178Z,1.77
2023-03-11T10:40:29.372Z,3.35
2023-03-11T10:43:01.156Z,2.10
2023-03-11T10:45:31.901Z,2.65
2023-03-11T10:48:01.593Z,2.70
2023-03-11T10:50:36.709Z,2.00
2023-03-11T10:53:11.720Z,2.10
2023-03-11T10:55:48.984Z,2.20
2023-03-11T10:58:19.961Z,2.30
2023-03-11T11:00:49.834Z,2.20
2023-03-11T11:03:24.414Z,2.55
2023-03-11T11:06:05.990Z,2.35
2023-03-11T11:08:35.797Z,1.92
2023-03-11T11:11:06.569Z,2.15
2023-03-11T11:13:37.234Z,2.20
2023-03-11T11:16:08.264Z,2.30
2023-03-11T11:18:40.153Z,1.92
2023-03-11T11:21:16.927Z,2.90
2023-03-11T11:23:50.914Z,2.30
2023-03-11T11:26:24.101Z,2.08
2023-03-11T11:29:09.447Z,2.13
2023-03-11T11:31:39.806Z,2.28
2023-03-11T11:34:30.749Z,2.35
2023-03-11T11:37:04.933Z,3.88
2023-03-11T11:42:04.834Z,2.50
2023-03-11T11:44:36.781Z,2.58
2023-03-11T11:47:10.255Z,2.40
2023-03-11T11:49:40.391Z,2.25
2023-03-11T11:52:16.728Z,2.53
2023-03-11T11:54:49.877Z,2.88
2023-03-11T11:57:21.258Z,7.85
2023-03-11T11:59:50.954Z,2.92
2023-03-11T12:02:33.388Z,3.28
2023-03-11T12:05:09.841Z,2.60
2023-03-11T12:08:00.152Z,2.38
2023-03-11T12:10:32.653Z,9.65
2023-03-11T12:13:20.765Z,3.90
2023-03-11T12:15:53.251Z,4.18
2023-03-11T12:18:25.893Z,2.90
2023-03-11T12:20:57.568Z,2.58
2023-03-11T12:23:44.266Z,2.42
2023-03-11T12:26:18.579Z,2.50
2023-03-11T12:28:53.351Z,2.35
2023-03-11T12:31:24.532Z,2.88
2023-03-11T12:33:59.041Z,3.67
2023-03-11T12:36:32.590Z,2.30
2023-03-11T12:39:06.517Z,3.22
2023-03-11T12:41:39.953Z,2.45
2023-03-11T12:44:25.273Z,2.70
2023-03-11T12:47:07.044Z,2.53
2023-03-11T12:49:38.560Z,2.40
2023-03-11T12:52:19.769Z,2.35
2023-03-11T12:54:53.065Z,3.00
2023-03-11T12:57:35.762Z,3.37
2023-03-11T13:00:18.166Z,9.00
2023-03-11T13:03:17.775Z,2.65
2023-03-11T13:06:01.546Z,2.45
2023-03-11T13:08:36.345Z,3.00
2023-03-11T13:11:36.468Z,2.95
2023-03-11T13:14:14.636Z,3.08
2023-03-11T13:16:44.279Z,2.67
2023-03-11T13:19:50.191Z,4.43
2023-03-11T13:22:45.223Z,2.70
2023-03-11T13:25:34.449Z,2.25
2023-03-11T13:28:29.342Z,2.40
2023-03-11T13:31:05.564Z,2.60
2023-03-11T13:33:44.780Z,2.45
2023-03-11T13:36:23.292Z,2.60
2023-03-11T13:39:08.788Z,2.47
2023-03-11T13:41:39.794Z,3.17
2023-03-11T13:44:25.230Z,2.72
2023-03-11T13:46:56.609Z,3.67
2023-03-11T13:49:35.508Z,2.50
2023-03-11T13:52:05.995Z,3.58
2023-03-11T13:54:41.027Z,2.78
2023-03-11T13:57:22.957Z,2.63
2023-03-11T13:59:58.395Z,2.63
2023-03-11T14:02:29.907Z,2.40
2023-03-11T14:05:01.619Z,2.40
2023-03-11T14:07:34.361Z,2.30
2023-03-11T14:10:23.670Z,2.72
2023-03-11T14:12:53.712Z,6.57
2023-03-11T14:15:27.753Z,2.80
2023-03-11T14:17:57.378Z,3.08
2023-03-11T14:20:28.973Z,2.38
2023-03-11T14:22:59.342Z,2.38
2023-03-11T14:25:31.130Z,2.40
2023-03-11T14:28:02.504Z,2.30
2023-03-11T14:30:36.612Z,2.40
2023-03-11T14:35:39.432Z,2.15
2023-03-11T14:38:23.953Z,2.38
2023-03-11T14:40:55.399Z,2.30
2023-03-11T14:43:25.165Z,2.30
2023-03-11T14:45:57.796Z,2.60
2023-03-11T14:48:30.445Z,2.33
2023-03-11T14:51:01.634Z,2.28
2023-03-11T14:53:34.043Z,2.30
2023-03-11T14:56:05.601Z,2.13
2023-03-11T14:58:37.118Z,2.45
2023-03-11T15:01:13.279Z,2.83
2023-03-11T15:03:47.410Z,2.10
2023-03-11T15:06:18.825Z,2.38
2023-03-11T15:08:50.874Z,2.30
2023-03-11T15:11:25.783Z,2.50
2023-03-11T15:13:56.091Z,2.30
2023-03-11T15:16:33.524Z,2.25
2023-03-11T15:19:04.195Z,2.67
2023-03-11T15:21:33.886Z,1.80
2023-03-11T15:24:07.006Z,2.17
2023-03-11T15:26:38.289Z,2.40
2023-03-11T15:29:16.514Z,2.03
2023-03-11T15:31:49.237Z,2.10
2023-03-11T15:34:27.602Z,2.40
2023-03-11T15:37:18.800Z,2.45
2023-03-11T15:39:51.281Z,2.08
2023-03-11T15:42:26.076Z,2.60
2023-03-11T15:45:08.462Z,4.40
2023-03-11T15:47:41.151Z,2.65
2023-03-11T15:50:27.232Z,2.42
2023-03-11T15:52:59.934Z,2.33
2023-03-11T15:55:30.498Z,2.30
2023-03-11T15:58:05.312Z,2.45
2023-03-11T16:00:35.410Z,2.35
2023-03-11T16:03:08.031Z,2.17
2023-03-11T16:05:37.845Z,2.25
2023-03-11T16:08:07.805Z,2.33
2023-03-11T16:10:37.629Z,1.77
2023-03-11T16:13:07.735Z,2.35
2023-03-11T16:15:39.154Z,2.10
2023-03-11T16:18:12.181Z,2.17
2023-03-11T16:20:45.237Z,2.10
2023-03-11T16:23:19.357Z,2.25
2023-03-11T16:28:19.404Z,2.20
2023-03-11T16:30:49.418Z,2.42
2023-03-11T16:33:21.722Z,2.47
2023-03-11T16:35:51.597Z,2.42
2023-03-11T16:38:23.179Z,2.85
2023-03-11T16:40:59.495Z,2.40
2023-03-11T16:43:29.783Z,3.80
2023-03-11T16:45:59.433Z,3.60
2023-03-11T16:48:31.629Z,2.15
2023-03-11T16:51:01.254Z,3.30
2023-03-11T16:53:30.981Z,2.90
2023-03-11T16:56:00.614Z,2.50
2023-03-11T16:58:30.857Z,6.35
2023-03-11T17:01:00.631Z,4.45
2023-03-11T17:03:41.927Z,2.90
2023-03-11T17:06:12.589Z,2.30
2023-03-11T17:08:42.246Z,2.38
2023-03-11T17:11:17.473Z,2.70
2023-03-11T17:13:47.239Z,3.03
2023-03-11T17:16:17.349Z,2.30
2023-03-11T17:18:49.776Z,2.78
2023-03-11T17:21:20.035Z,2.50
2023-03-11T17:23:50.083Z,3.10
2023-03-11T17:26:20.534Z,3.03
2023-03-11T17:28:50.157Z,3.67
2023-03-11T17:31:20.417Z,3.20
2023-03-11T17:33:52.618Z,4.18
2023-03-11T17:36:22.533Z,2.53
2023-03-11T17:38:54.932Z,2.90
2023-03-11T17:41:25.431Z,4.00
2023-03-11T17:43:55.152Z,6.32
2023-03-11T17:46:25.270Z,2.85
2023-03-11T17:48:57.545Z,4.40
2023-03-11T17:51:28.403Z,3.90
2023-03-11T17:53:59.569Z,3.83
2023-03-11T17:56:29.437Z,3.25
2023-03-11T17:58:59.551Z,3.90
2023-03-11T18:01:30.469Z,3.70
2023-03-11T18:04:02.944Z,4.20
2023-03-11T18:06:32.985Z,4.20
2023-03-11T18:09:02.843Z,5.45
2023-03-11T18:11:32.487Z,4.80
2023-03-11T18:14:02.121Z,4.20
2023-03-11T18:16:33.772Z,4.95
2023-03-11T18:19:05.998Z,4.85
2023-03-11T18:21:35.598Z,5.18
2023-03-11T18:24:05.270Z,5.30
2023-03-11T18:26:34.905Z,5.13
2023-03-11T18:29:04.626Z,5.22
2023-03-11T18:31:34.661Z,5.18
2023-03-11T18:34:12.309Z,5.22
2023-03-11T18:36:42.813Z,4.47
2023-03-11T18:39:14.038Z,4.50
2023-03-11T18:41:43.978Z,4.65
2023-03-11T18:44:13.712Z,4.55
2023-03-11T18:46:44.118Z,4.90
2023-03-11T18:49:17.586Z,5.50
2023-03-11T18:51:47.194Z,6.35
2023-03-11T18:54:16.803Z,6.13
2023-03-11T18:56:46.428Z,6.72
2023-03-11T18:59:16.036Z,6.25
2023-03-11T19:01:45.680Z,6.00
2023-03-11T19:04:17.908Z,6.88
2023-03-11T19:06:48.157Z,7.20
2023-03-11T19:09:18.411Z,7.22
2023-03-11T19:11:48.136Z,7.50
2023-03-11T19:14:17.737Z,8.63
2023-03-11T19:16:47.416Z,8.32
2023-03-11T19:19:19.668Z,8.73
2023-03-11T19:21:49.675Z,8.48
2023-03-11T19:24:19.266Z,8.40
2023-03-11T19:26:48.898Z,9.00
2023-03-11T19:29:19.734Z,8.98
2023-03-11T19:31:49.349Z,9.35
2023-03-11T19:34:22.372Z,10.15
2023-03-11T19:36:52.025Z,9.98
2023-03-11T19:39:21.619Z,9.82
2023-03-11T19:41:51.229Z,10.20
2023-03-11T19:44:20.843Z,10.13
2023-03-11T19:46:50.888Z,11.52
2023-03-11T19:49:23.594Z,11.68
2023-03-11T19:51:54.789Z,12.63
2023-03-11T19:54:24.826Z,10.95
2023-03-11T19:56:54.457Z,11.40
2023-03-11T19:59:24.158Z,12.07
2023-03-11T20:01:53.816Z,12.07
2023-03-11T20:04:26.051Z,11.95
2023-03-11T20:06:55.794Z,11.60
2023-03-11T20:09:25.426Z,10.88
2023-03-11T20:11:55.146Z,11.23
2023-03-11T20:14:24.747Z,11.27
2023-03-11T20:16:54.385Z,10.63
2023-03-11T20:19:27.052Z,11.93
2023-03-11T20:21:56.768Z,12.27
2023-03-11T20:24:26.414Z,10.88
2023-03-11T20:26:56.439Z,11.70
2023-03-11T20:29:26.186Z,11.85
2023-03-11T20:31:55.945Z,12.30
2023-03-11T20:34:29.379Z,11.77
2023-03-11T20:36:59.079Z,12.60
2023-03-11T20:39:28.916Z,11.07
2023-03-11T20:41:58.660Z,9.68
2023-03-11T20:44:28.705Z,13.10
2023-03-11T20:46:58.461Z,10.30
2023-03-11T20:49:30.728Z,11.00
2023-03-11T20:52:01.298Z,10.18
2023-03-11T20:54:30.961Z,10.40
2023-03-11T20:57:00.608Z,9.73
2023-03-11T20:59:30.368Z,10.60
2023-03-11T21:02:00.138Z,9.88
2023-03-11T21:04:32.566Z,10.75
2023-03-11T21:07:02.651Z,10.27
2023-03-11T21:09:32.466Z,10.45
2023-03-11T21:12:02.172Z,8.40
2023-03-11T21:14:31.947Z,9.82
2023-03-11T21:17:01.651Z,10.82
2023-03-11T21:19:33.948Z,10.93
2023-03-11T21:22:04.391Z,11.52
2023-03-11T21:24:34.010Z,11.07
2023-03-11T21:27:03.949Z,10.60
2023-03-11T21:29:33.592Z,11.65
2023-03-11T21:32:03.642Z,11.63
2023-03-11T21:34:36.345Z,10.60
2023-03-11T21:37:05.975Z,11.30
2023-03-11T21:39:35.587Z,10.93
2023-03-11T21:42:05.330Z,10.15
2023-03-11T21:44:35.010Z,10.13
2023-03-11T21:47:04.733Z,10.02
2023-03-11T21:49:37.396Z,9.50
2023-03-11T21:52:07.530Z,8.93
2023-03-11T21:54:37.224Z,9.73
2023-03-11T21:57:07.174Z,8.57
2023-03-11T21:59:37.202Z,8.43
2023-03-11T22:02:06.906Z,8.60
2023-03-11T22:04:39.182Z,7.88
2023-03-11T22:07:09.082Z,8.45
2023-03-11T22:09:38.871Z,10.80
2023-03-11T22:12:09.234Z,9.35
2023-03-11T22:14:38.888Z,7.70
2023-03-11T22:17:08.808Z,8.13
2023-03-11T22:19:41.127Z,8.48
2023-03-11T22:22:10.792Z,9.02
2023-03-11T22:24:40.636Z,8.73
2023-03-11T22:27:10.270Z,8.20
2023-03-11T22:29:40.432Z,8.07
2023-03-11T22:32:10.045Z,7.63
2023-03-11T22:34:42.240Z,7.00
2023-03-11T22:37:12.424Z,7.45
2023-03-11T22:39:42.033Z,6.97
2023-03-11T22:42:12.324Z,7.30
2023-03-11T22:44:41.965Z,6.90
2023-03-11T22:47:11.627Z,6.95
2023-03-11T22:49:43.838Z,6.82
2023-03-11T22:52:13.441Z,6.63
2023-03-11T22:54:43.073Z,6.28
2023-03-11T22:57:12.824Z,6.43
2023-03-11T22:59:42.479Z,6.80
2023-03-11T23:02:12.099Z,6.15
2023-03-11T23:04:46.826Z,5.80
2023-03-11T23:07:16.426Z,5.90
2023-03-11T23:09:46.089Z,5.50
2023-03-11T23:12:15.674Z,5.85
2023-03-11T23:14:47.198Z,5.78
2023-03-11T23:17:17.227Z,5.63
2023-03-11T23:19:49.410Z,5.18
2023-03-11T23:22:18.995Z,5.20
2023-03-11T23:24:48.658Z,5.18
2023-03-11T23:27:18.272Z,5.25
2023-03-11T23:29:47.964Z,5.38
2023-03-11T23:32:17.599Z,5.63
2023-03-11T23:34:49.916Z,5.30
2023-03-11T23:37:19.579Z,5.13
2023-03-11T23:39:49.208Z,5.00
2023-03-11T23:42:25.816Z,5.22
2023-03-11T23:44:55.996Z,5.35
2023-03-11T23:47:25.599Z,5.47
2023-03-11T23:49:58.244Z,4.93
2023-03-11T23:52:28.339Z,4.82
2023-03-11T23:54:58.468Z,5.05
2023-03-11T23:57:28.169Z,5.43
2023-03-11T23:59:57.801Z,5.45
